sensor_id;sensor_type;location;lat;lon;timestamp;temperature;humidity
25877;DHT22;13692;47.480;19.216;2022-11-13T00:01:10;6.70;99.90
25877;DHT22;13692;47.480;19.216;2022-11-13T00:03:37;6.70;99.90
25877;DHT22;13692;47.480;19.216;2022-11-13T00:06:04;6.70;99.90
25877;DHT22;13692;47.480;19.216;2022-11-13T00:08:32;6.70;99.90
25877;DHT22;13692;47.480;19.216;2022-11-13T00:11:00;6.60;99.90
25877;DHT22;13692;47.480;19.216;2022-11-13T00:13:28;6.50;99.90
25877;DHT22;13692;47.480;19.216;2022-11-13T00:16:00;6.50;99.90
25877;DHT22;13692;47.480;19.216;2022-11-13T00:18:29;6.50;99.90
25877;DHT22;13692;47.480;19.216;2022-11-13T00:21:02;6.50;99.90
25877;DHT22;13692;47.480;19.216;2022-11-13T00:23:31;6.40;99.90
25877;DHT22;13692;47.480;19.216;2022-11-13T00:26:08;6.40;99.90
25877;DHT22;13692;47.480;19.216;2022-11-13T00:28:35;6.40;99.90
25877;DHT22;13692;47.480;19.216;2022-11-13T00:31:04;6.40;99.90
25877;DHT22;13692;47.480;19.216;2022-11-13T00:33:31;6.30;99.90
25877;DHT22;13692;47.480;19.216;2022-11-13T00:36:24;6.30;99.90
25877;DHT22;13692;47.480;19.216;2022-11-13T00:38:52;6.30;99.90
25877;DHT22;13692;47.480;19.216;2022-11-13T00:41:19;6.30;99.90
25877;DHT22;13692;47.480;19.216;2022-11-13T00:43:46;6.30;99.90
25877;DHT22;13692;47.480;19.216;2022-11-13T00:46:13;6.30;99.90
25877;DHT22;13692;47.480;19.216;2022-11-13T00:48:40;6.30;99.90
25877;DHT22;13692;47.480;19.216;2022-11-13T00:51:07;6.30;99.90
25877;DHT22;13692;47.480;19.216;2022-11-13T00:53:34;6.20;99.90
25877;DHT22;13692;47.480;19.216;2022-11-13T00:56:00;6.20;99.90
25877;DHT22;13692;47.480;19.216;2022-11-13T00:58:28;6.10;99.90
25877;DHT22;13692;47.480;19.216;2022-11-13T01:01:07;6.20;99.90
25877;DHT22;13692;47.480;19.216;2022-11-13T01:03:34;6.10;99.90
25877;DHT22;13692;47.480;19.216;2022-11-13T01:06:09;6.10;99.90
25877;DHT22;13692;47.480;19.216;2022-11-13T01:08:36;6.10;99.90
25877;DHT22;13692;47.480;19.216;2022-11-13T01:11:09;6.00;99.90
25877;DHT22;13692;47.480;19.216;2022-11-13T01:13:37;6.00;99.90
25877;DHT22;13692;47.480;19.216;2022-11-13T01:16:06;6.00;99.90
25877;DHT22;13692;47.480;19.216;2022-11-13T01:18:33;5.90;99.90
25877;DHT22;13692;47.480;19.216;2022-11-13T01:21:14;5.90;99.90
25877;DHT22;13692;47.480;19.216;2022-11-13T01:23:41;5.90;99.90
25877;DHT22;13692;47.480;19.216;2022-11-13T01:28:44;5.90;99.90
25877;DHT22;13692;47.480;19.216;2022-11-13T01:31:23;5.80;99.90
25877;DHT22;13692;47.480;19.216;2022-11-13T01:33:51;5.80;99.90
25877;DHT22;13692;47.480;19.216;2022-11-13T01:36:20;5.90;99.90
25877;DHT22;13692;47.480;19.216;2022-11-13T01:38:48;5.90;99.90
25877;DHT22;13692;47.480;19.216;2022-11-13T01:41:51;5.90;99.90
25877;DHT22;13692;47.480;19.216;2022-11-13T01:44:13;6.00;99.90
25877;DHT22;13692;47.480;19.216;2022-11-13T01:46:44;6.10;99.90
25877;DHT22;13692;47.480;19.216;2022-11-13T01:49:36;6.10;99.90
25877;DHT22;13692;47.480;19.216;2022-11-13T01:52:07;6.10;99.90
25877;DHT22;13692;47.480;19.216;2022-11-13T01:54:46;6.10;99.90
25877;DHT22;13692;47.480;19.216;2022-11-13T01:57:15;6.10;99.90
25877;DHT22;13692;47.480;19.216;2022-11-13T01:59:47;6.10;99.90
25877;DHT22;13692;47.480;19.216;2022-11-13T02:02:15;6.00;99.90
25877;DHT22;13692;47.480;19.216;2022-11-13T02:04:42;6.00;99.90
25877;DHT22;13692;47.480;19.216;2022-11-13T02:07:12;6.00;99.90
25877;DHT22;13692;47.480;19.216;2022-11-13T02:09:46;6.00;99.90
25877;DHT22;13692;47.480;19.216;2022-11-13T02:12:16;6.10;99.90
25877;DHT22;13692;47.480;19.216;2022-11-13T02:14:52;6.10;99.90
25877;DHT22;13692;47.480;19.216;2022-11-13T02:17:44;6.20;99.90
25877;DHT22;13692;47.480;19.216;2022-11-13T02:20:11;6.20;99.90
25877;DHT22;13692;47.480;19.216;2022-11-13T02:25:16;6.20;99.90
25877;DHT22;13692;47.480;19.216;2022-11-13T02:27:45;6.20;99.90
25877;DHT22;13692;47.480;19.216;2022-11-13T02:30:22;6.20;99.90
25877;DHT22;13692;47.480;19.216;2022-11-13T02:32:55;6.20;99.90
25877;DHT22;13692;47.480;19.216;2022-11-13T02:35:31;6.20;99.90
25877;DHT22;13692;47.480;19.216;2022-11-13T02:38:00;6.20;99.90
25877;DHT22;13692;47.480;19.216;2022-11-13T02:40:27;6.20;99.90
25877;DHT22;13692;47.480;19.216;2022-11-13T02:42:54;6.20;99.90
25877;DHT22;13692;47.480;19.216;2022-11-13T02:45:21;6.20;99.90
25877;DHT22;13692;47.480;19.216;2022-11-13T02:47:49;6.20;99.90
25877;DHT22;13692;47.480;19.216;2022-11-13T02:50:16;6.10;99.90
25877;DHT22;13692;47.480;19.216;2022-11-13T02:52:43;6.20;99.90
25877;DHT22;13692;47.480;19.216;2022-11-13T02:55:10;6.20;99.90
25877;DHT22;13692;47.480;19.216;2022-11-13T02:57:37;6.20;99.90
25877;DHT22;13692;47.480;19.216;2022-11-13T03:00:05;6.20;99.90
25877;DHT22;13692;47.480;19.216;2022-11-13T03:02:39;6.20;99.90
25877;DHT22;13692;47.480;19.216;2022-11-13T03:05:06;6.00;99.90
25877;DHT22;13692;47.480;19.216;2022-11-13T03:07:39;5.90;99.90
25877;DHT22;13692;47.480;19.216;2022-11-13T03:10:07;5.70;99.90
25877;DHT22;13692;47.480;19.216;2022-11-13T03:12:34;5.60;99.90
25877;DHT22;13692;47.480;19.216;2022-11-13T03:15:02;5.40;99.90
25877;DHT22;13692;47.480;19.216;2022-11-13T03:17:33;5.40;99.90
25877;DHT22;13692;47.480;19.216;2022-11-13T03:20:00;5.40;99.90
25877;DHT22;13692;47.480;19.216;2022-11-13T03:22:27;5.50;99.90
25877;DHT22;13692;47.480;19.216;2022-11-13T03:24:53;5.60;99.90
25877;DHT22;13692;47.480;19.216;2022-11-13T03:27:20;5.70;99.90
25877;DHT22;13692;47.480;19.216;2022-11-13T03:29:47;5.70;99.90
25877;DHT22;13692;47.480;19.216;2022-11-13T03:32:15;5.70;99.90
25877;DHT22;13692;47.480;19.216;2022-11-13T03:34:42;5.80;99.90
25877;DHT22;13692;47.480;19.216;2022-11-13T03:37:08;5.80;99.90
25877;DHT22;13692;47.480;19.216;2022-11-13T03:39:35;5.90;99.90
25877;DHT22;13692;47.480;19.216;2022-11-13T03:42:02;5.80;99.90
25877;DHT22;13692;47.480;19.216;2022-11-13T03:44:29;5.90;99.90
25877;DHT22;13692;47.480;19.216;2022-11-13T03:46:56;5.90;99.90
25877;DHT22;13692;47.480;19.216;2022-11-13T03:49:23;5.90;99.90
25877;DHT22;13692;47.480;19.216;2022-11-13T03:51:49;5.90;99.90
25877;DHT22;13692;47.480;19.216;2022-11-13T03:54:16;5.80;99.90
25877;DHT22;13692;47.480;19.216;2022-11-13T03:56:43;5.80;99.90
25877;DHT22;13692;47.480;19.216;2022-11-13T03:59:10;5.80;99.90
25877;DHT22;13692;47.480;19.216;2022-11-13T04:01:37;5.80;99.90
25877;DHT22;13692;47.480;19.216;2022-11-13T04:04:04;5.80;99.90
25877;DHT22;13692;47.480;19.216;2022-11-13T04:06:31;5.80;99.90
25877;DHT22;13692;47.480;19.216;2022-11-13T04:08:58;5.80;99.90
25877;DHT22;13692;47.480;19.216;2022-11-13T04:11:24;5.80;99.90
25877;DHT22;13692;47.480;19.216;2022-11-13T04:13:51;5.80;99.90
25877;DHT22;13692;47.480;19.216;2022-11-13T04:16:18;5.80;99.90
25877;DHT22;13692;47.480;19.216;2022-11-13T04:18:45;5.80;99.90
25877;DHT22;13692;47.480;19.216;2022-11-13T04:21:12;5.80;99.90
25877;DHT22;13692;47.480;19.216;2022-11-13T04:23:38;5.70;99.90
25877;DHT22;13692;47.480;19.216;2022-11-13T04:26:05;5.70;99.90
25877;DHT22;13692;47.480;19.216;2022-11-13T04:28:32;5.60;99.90
25877;DHT22;13692;47.480;19.216;2022-11-13T04:30:59;5.60;99.90
25877;DHT22;13692;47.480;19.216;2022-11-13T04:33:26;5.60;99.90
25877;DHT22;13692;47.480;19.216;2022-11-13T04:35:53;5.60;99.90
25877;DHT22;13692;47.480;19.216;2022-11-13T04:38:20;5.60;99.90
25877;DHT22;13692;47.480;19.216;2022-11-13T04:40:50;5.50;99.90
25877;DHT22;13692;47.480;19.216;2022-11-13T04:43:37;5.50;99.90
25877;DHT22;13692;47.480;19.216;2022-11-13T04:46:03;5.50;99.90
25877;DHT22;13692;47.480;19.216;2022-11-13T04:48:30;5.50;99.90
25877;DHT22;13692;47.480;19.216;2022-11-13T04:50:57;5.40;99.90
25877;DHT22;13692;47.480;19.216;2022-11-13T04:53:24;5.40;99.90
25877;DHT22;13692;47.480;19.216;2022-11-13T04:55:52;5.30;99.90
25877;DHT22;13692;47.480;19.216;2022-11-13T04:58:19;5.30;99.90
25877;DHT22;13692;47.480;19.216;2022-11-13T05:00:45;5.30;99.90
25877;DHT22;13692;47.480;19.216;2022-11-13T05:03:12;5.30;99.90
25877;DHT22;13692;47.480;19.216;2022-11-13T05:05:39;5.30;99.90
25877;DHT22;13692;47.480;19.216;2022-11-13T05:08:06;5.30;99.90
25877;DHT22;13692;47.480;19.216;2022-11-13T05:10:33;5.30;99.90
25877;DHT22;13692;47.480;19.216;2022-11-13T05:13:00;5.30;99.90
25877;DHT22;13692;47.480;19.216;2022-11-13T05:15:26;5.30;99.90
25877;DHT22;13692;47.480;19.216;2022-11-13T05:17:53;5.30;99.90
25877;DHT22;13692;47.480;19.216;2022-11-13T05:20:20;5.20;99.90
25877;DHT22;13692;47.480;19.216;2022-11-13T05:22:47;5.30;99.90
25877;DHT22;13692;47.480;19.216;2022-11-13T05:25:14;5.30;99.90
25877;DHT22;13692;47.480;19.216;2022-11-13T05:27:41;5.30;99.90
25877;DHT22;13692;47.480;19.216;2022-11-13T05:30:08;5.20;99.90
25877;DHT22;13692;47.480;19.216;2022-11-13T05:32:35;5.30;99.90
25877;DHT22;13692;47.480;19.216;2022-11-13T05:35:02;5.30;99.90
25877;DHT22;13692;47.480;19.216;2022-11-13T05:37:29;5.40;99.90
25877;DHT22;13692;47.480;19.216;2022-11-13T05:39:55;5.30;99.90
25877;DHT22;13692;47.480;19.216;2022-11-13T05:42:22;5.30;99.90
25877;DHT22;13692;47.480;19.216;2022-11-13T05:44:49;5.30;99.90
25877;DHT22;13692;47.480;19.216;2022-11-13T05:47:16;5.30;99.90
25877;DHT22;13692;47.480;19.216;2022-11-13T05:49:43;5.30;99.90
25877;DHT22;13692;47.480;19.216;2022-11-13T05:52:10;5.30;99.90
25877;DHT22;13692;47.480;19.216;2022-11-13T05:54:36;5.40;99.90
25877;DHT22;13692;47.480;19.216;2022-11-13T05:57:04;5.40;99.90
25877;DHT22;13692;47.480;19.216;2022-11-13T05:59:31;5.40;99.90
25877;DHT22;13692;47.480;19.216;2022-11-13T06:01:57;5.40;99.90
25877;DHT22;13692;47.480;19.216;2022-11-13T06:04:24;5.40;99.90
25877;DHT22;13692;47.480;19.216;2022-11-13T06:06:51;5.40;99.90
25877;DHT22;13692;47.480;19.216;2022-11-13T06:09:18;5.40;99.90
25877;DHT22;13692;47.480;19.216;2022-11-13T06:11:45;5.30;99.90
25877;DHT22;13692;47.480;19.216;2022-11-13T06:14:12;5.30;99.90
25877;DHT22;13692;47.480;19.216;2022-11-13T06:16:39;5.20;99.90
25877;DHT22;13692;47.480;19.216;2022-11-13T06:19:08;5.30;99.90
25877;DHT22;13692;47.480;19.216;2022-11-13T06:21:38;5.40;99.90
25877;DHT22;13692;47.480;19.216;2022-11-13T06:24:06;5.40;99.90
25877;DHT22;13692;47.480;19.216;2022-11-13T06:26:34;5.50;99.90
25877;DHT22;13692;47.480;19.216;2022-11-13T06:29:03;5.50;99.90
25877;DHT22;13692;47.480;19.216;2022-11-13T06:31:33;5.60;99.90
25877;DHT22;13692;47.480;19.216;2022-11-13T06:34:00;5.70;99.90
25877;DHT22;13692;47.480;19.216;2022-11-13T06:36:29;5.80;99.90
25877;DHT22;13692;47.480;19.216;2022-11-13T06:38:57;5.80;99.90
25877;DHT22;13692;47.480;19.216;2022-11-13T06:41:26;5.80;99.90
25877;DHT22;13692;47.480;19.216;2022-11-13T06:43:57;5.80;99.90
25877;DHT22;13692;47.480;19.216;2022-11-13T06:46:29;5.90;99.90
25877;DHT22;13692;47.480;19.216;2022-11-13T06:48:56;5.90;99.90
25877;DHT22;13692;47.480;19.216;2022-11-13T06:51:26;6.00;99.90
25877;DHT22;13692;47.480;19.216;2022-11-13T06:53:53;6.00;99.90
25877;DHT22;13692;47.480;19.216;2022-11-13T06:56:20;6.10;99.90
25877;DHT22;13692;47.480;19.216;2022-11-13T06:58:48;6.00;99.90
25877;DHT22;13692;47.480;19.216;2022-11-13T07:01:17;6.00;99.90
25877;DHT22;13692;47.480;19.216;2022-11-13T07:03:44;6.10;99.90
25877;DHT22;13692;47.480;19.216;2022-11-13T07:06:19;6.20;99.90
25877;DHT22;13692;47.480;19.216;2022-11-13T07:08:47;6.30;99.90
25877;DHT22;13692;47.480;19.216;2022-11-13T07:11:16;6.40;99.90
25877;DHT22;13692;47.480;19.216;2022-11-13T07:13:44;6.40;99.90
25877;DHT22;13692;47.480;19.216;2022-11-13T07:16:12;6.40;99.90
25877;DHT22;13692;47.480;19.216;2022-11-13T07:18:52;6.40;99.90
25877;DHT22;13692;47.480;19.216;2022-11-13T07:21:20;6.60;99.90
25877;DHT22;13692;47.480;19.216;2022-11-13T07:23:48;6.70;99.90
25877;DHT22;13692;47.480;19.216;2022-11-13T07:26:15;6.70;99.90
25877;DHT22;13692;47.480;19.216;2022-11-13T07:28:42;6.80;99.90
25877;DHT22;13692;47.480;19.216;2022-11-13T07:31:11;6.80;99.90
25877;DHT22;13692;47.480;19.216;2022-11-13T07:33:38;6.80;99.90
25877;DHT22;13692;47.480;19.216;2022-11-13T07:36:06;6.80;99.90
25877;DHT22;13692;47.480;19.216;2022-11-13T07:38:33;6.90;99.90
25877;DHT22;13692;47.480;19.216;2022-11-13T07:41:01;6.90;99.90
25877;DHT22;13692;47.480;19.216;2022-11-13T07:43:28;7.00;99.90
25877;DHT22;13692;47.480;19.216;2022-11-13T07:45:57;7.10;99.90
25877;DHT22;13692;47.480;19.216;2022-11-13T07:48:24;7.10;99.90
25877;DHT22;13692;47.480;19.216;2022-11-13T07:50:53;7.10;99.90
25877;DHT22;13692;47.480;19.216;2022-11-13T07:53:21;7.20;99.90
25877;DHT22;13692;47.480;19.216;2022-11-13T07:55:48;7.20;99.90
25877;DHT22;13692;47.480;19.216;2022-11-13T07:58:15;7.30;99.90
25877;DHT22;13692;47.480;19.216;2022-11-13T08:00:42;7.40;99.90
25877;DHT22;13692;47.480;19.216;2022-11-13T08:03:15;7.50;99.90
25877;DHT22;13692;47.480;19.216;2022-11-13T08:05:42;7.60;99.90
25877;DHT22;13692;47.480;19.216;2022-11-13T08:08:14;7.60;99.90
25877;DHT22;13692;47.480;19.216;2022-11-13T08:10:41;7.70;99.90
25877;DHT22;13692;47.480;19.216;2022-11-13T08:13:09;7.80;99.90
25877;DHT22;13692;47.480;19.216;2022-11-13T08:15:37;7.90;99.90
25877;DHT22;13692;47.480;19.216;2022-11-13T08:18:04;7.90;99.90
25877;DHT22;13692;47.480;19.216;2022-11-13T08:20:32;8.00;99.90
25877;DHT22;13692;47.480;19.216;2022-11-13T08:23:00;8.10;99.90
25877;DHT22;13692;47.480;19.216;2022-11-13T08:25:28;8.10;99.90
25877;DHT22;13692;47.480;19.216;2022-11-13T08:27:56;8.20;99.90
25877;DHT22;13692;47.480;19.216;2022-11-13T08:30:25;8.20;99.90
25877;DHT22;13692;47.480;19.216;2022-11-13T08:32:52;8.30;99.90
25877;DHT22;13692;47.480;19.216;2022-11-13T08:35:19;8.40;99.90
25877;DHT22;13692;47.480;19.216;2022-11-13T08:37:52;8.50;99.90
25877;DHT22;13692;47.480;19.216;2022-11-13T08:40:19;8.50;99.90
25877;DHT22;13692;47.480;19.216;2022-11-13T08:42:45;8.60;99.90
25877;DHT22;13692;47.480;19.216;2022-11-13T08:45:12;8.70;99.90
25877;DHT22;13692;47.480;19.216;2022-11-13T08:47:39;8.60;99.90
25877;DHT22;13692;47.480;19.216;2022-11-13T08:50:06;8.60;99.90
25877;DHT22;13692;47.480;19.216;2022-11-13T08:52:33;8.70;99.90
25877;DHT22;13692;47.480;19.216;2022-11-13T08:55:00;8.80;99.90
25877;DHT22;13692;47.480;19.216;2022-11-13T08:57:27;8.90;99.90
25877;DHT22;13692;47.480;19.216;2022-11-13T08:59:54;9.00;99.90
25877;DHT22;13692;47.480;19.216;2022-11-13T09:02:21;9.10;99.90
25877;DHT22;13692;47.480;19.216;2022-11-13T09:04:48;9.10;99.90
25877;DHT22;13692;47.480;19.216;2022-11-13T09:07:15;9.20;99.90
25877;DHT22;13692;47.480;19.216;2022-11-13T09:09:42;9.20;99.90
25877;DHT22;13692;47.480;19.216;2022-11-13T09:12:09;9.30;99.90
25877;DHT22;13692;47.480;19.216;2022-11-13T09:14:35;9.40;99.90
25877;DHT22;13692;47.480;19.216;2022-11-13T09:17:02;9.50;99.90
25877;DHT22;13692;47.480;19.216;2022-11-13T09:19:29;9.60;99.90
25877;DHT22;13692;47.480;19.216;2022-11-13T09:21:56;9.70;99.90
25877;DHT22;13692;47.480;19.216;2022-11-13T09:24:23;9.80;99.90
25877;DHT22;13692;47.480;19.216;2022-11-13T09:26:50;9.80;99.90
25877;DHT22;13692;47.480;19.216;2022-11-13T09:29:17;9.90;99.90
25877;DHT22;13692;47.480;19.216;2022-11-13T09:31:44;9.90;99.90
25877;DHT22;13692;47.480;19.216;2022-11-13T09:34:11;10.00;99.90
25877;DHT22;13692;47.480;19.216;2022-11-13T09:36:39;10.10;99.90
25877;DHT22;13692;47.480;19.216;2022-11-13T09:39:06;10.20;99.90
25877;DHT22;13692;47.480;19.216;2022-11-13T09:41:38;10.30;99.90
25877;DHT22;13692;47.480;19.216;2022-11-13T09:44:12;10.30;99.90
25877;DHT22;13692;47.480;19.216;2022-11-13T09:46:53;10.40;99.90
25877;DHT22;13692;47.480;19.216;2022-11-13T09:49:33;10.60;99.90
25877;DHT22;13692;47.480;19.216;2022-11-13T09:52:04;10.70;99.90
25877;DHT22;13692;47.480;19.216;2022-11-13T09:54:35;10.70;99.90
25877;DHT22;13692;47.480;19.216;2022-11-13T09:57:29;10.70;99.90
25877;DHT22;13692;47.480;19.216;2022-11-13T10:00:05;10.80;99.90
25877;DHT22;13692;47.480;19.216;2022-11-13T10:02:44;10.80;99.90
25877;DHT22;13692;47.480;19.216;2022-11-13T10:08:16;10.90;99.90
25877;DHT22;13692;47.480;19.216;2022-11-13T10:10:52;11.00;99.90
25877;DHT22;13692;47.480;19.216;2022-11-13T10:18:51;11.30;99.90
25877;DHT22;13692;47.480;19.216;2022-11-13T10:21:31;11.20;99.90
25877;DHT22;13692;47.480;19.216;2022-11-13T10:24:03;11.20;99.90
25877;DHT22;13692;47.480;19.216;2022-11-13T10:26:35;11.20;99.90
25877;DHT22;13692;47.480;19.216;2022-11-13T10:29:14;11.30;99.90
25877;DHT22;13692;47.480;19.216;2022-11-13T10:31:47;11.50;99.90
25877;DHT22;13692;47.480;19.216;2022-11-13T10:34:15;11.50;99.90
25877;DHT22;13692;47.480;19.216;2022-11-13T10:37:29;11.60;99.90
25877;DHT22;13692;47.480;19.216;2022-11-13T10:39:59;11.60;99.90
25877;DHT22;13692;47.480;19.216;2022-11-13T10:42:28;11.70;99.90
25877;DHT22;13692;47.480;19.216;2022-11-13T10:44:58;11.90;99.90
25877;DHT22;13692;47.480;19.216;2022-11-13T10:47:28;11.90;99.90
25877;DHT22;13692;47.480;19.216;2022-11-13T10:50:25;11.90;99.90
25877;DHT22;13692;47.480;19.216;2022-11-13T10:52:54;11.90;99.90
25877;DHT22;13692;47.480;19.216;2022-11-13T10:55:27;11.90;99.90
25877;DHT22;13692;47.480;19.216;2022-11-13T10:58:09;12.00;99.90
25877;DHT22;13692;47.480;19.216;2022-11-13T11:00:38;12.10;99.90
25877;DHT22;13692;47.480;19.216;2022-11-13T11:03:12;12.30;99.90
25877;DHT22;13692;47.480;19.216;2022-11-13T11:05:39;12.30;99.90
25877;DHT22;13692;47.480;19.216;2022-11-13T11:08:16;12.40;99.90
25877;DHT22;13692;47.480;19.216;2022-11-13T11:10:58;12.50;99.90
25877;DHT22;13692;47.480;19.216;2022-11-13T11:13:44;12.50;99.90
25877;DHT22;13692;47.480;19.216;2022-11-13T11:16:20;12.60;99.90
25877;DHT22;13692;47.480;19.216;2022-11-13T11:18:54;12.50;99.90
25877;DHT22;13692;47.480;19.216;2022-11-13T11:21:34;12.50;99.90
25877;DHT22;13692;47.480;19.216;2022-11-13T11:24:13;12.50;99.90
25877;DHT22;13692;47.480;19.216;2022-11-13T11:26:49;12.50;99.90
25877;DHT22;13692;47.480;19.216;2022-11-13T11:29:41;12.50;99.90
25877;DHT22;13692;47.480;19.216;2022-11-13T11:32:41;12.60;99.90
25877;DHT22;13692;47.480;19.216;2022-11-13T11:35:23;12.50;99.90
25877;DHT22;13692;47.480;19.216;2022-11-13T11:38:05;12.50;99.90
25877;DHT22;13692;47.480;19.216;2022-11-13T11:40:41;12.50;99.90
25877;DHT22;13692;47.480;19.216;2022-11-13T11:43:40;12.50;99.90
25877;DHT22;13692;47.480;19.216;2022-11-13T11:46:11;12.50;99.90
25877;DHT22;13692;47.480;19.216;2022-11-13T11:48:39;12.60;99.90
25877;DHT22;13692;47.480;19.216;2022-11-13T11:51:42;12.50;99.90
25877;DHT22;13692;47.480;19.216;2022-11-13T12:04:56;12.60;99.90
25877;DHT22;13692;47.480;19.216;2022-11-13T12:10:51;12.60;99.90
25877;DHT22;13692;47.480;19.216;2022-11-13T12:26:52;12.80;99.90
25877;DHT22;13692;47.480;19.216;2022-11-13T12:29:50;12.80;99.90
25877;DHT22;13692;47.480;19.216;2022-11-13T12:35:21;12.80;99.90
25877;DHT22;13692;47.480;19.216;2022-11-13T12:41:01;12.70;99.90
25877;DHT22;13692;47.480;19.216;2022-11-13T12:46:15;12.60;99.90
25877;DHT22;13692;47.480;19.216;2022-11-13T12:48:44;12.60;99.90
25877;DHT22;13692;47.480;19.216;2022-11-13T12:51:14;12.50;99.90
25877;DHT22;13692;47.480;19.216;2022-11-13T12:56:30;12.50;99.90
25877;DHT22;13692;47.480;19.216;2022-11-13T12:59:12;12.60;99.90
25877;DHT22;13692;47.480;19.216;2022-11-13T13:10:52;12.50;99.90
25877;DHT22;13692;47.480;19.216;2022-11-13T13:16:04;12.50;99.90
25877;DHT22;13692;47.480;19.216;2022-11-13T13:18:35;12.50;99.90
25877;DHT22;13692;47.480;19.216;2022-11-13T13:21:06;12.50;99.90
25877;DHT22;13692;47.480;19.216;2022-11-13T13:23:39;12.50;99.90
25877;DHT22;13692;47.480;19.216;2022-11-13T13:26:20;12.50;99.90
25877;DHT22;13692;47.480;19.216;2022-11-13T13:28:55;12.50;99.90
25877;DHT22;13692;47.480;19.216;2022-11-13T13:48:19;12.50;99.90
25877;DHT22;13692;47.480;19.216;2022-11-13T13:50:48;12.50;99.90
25877;DHT22;13692;47.480;19.216;2022-11-13T13:53:24;12.40;99.90
25877;DHT22;13692;47.480;19.216;2022-11-13T13:55:55;12.50;99.90
25877;DHT22;13692;47.480;19.216;2022-11-13T13:58:42;12.50;99.90
25877;DHT22;13692;47.480;19.216;2022-11-13T14:01:15;12.40;99.90
25877;DHT22;13692;47.480;19.216;2022-11-13T14:04:15;12.40;99.90
25877;DHT22;13692;47.480;19.216;2022-11-13T14:06:51;12.40;99.90
25877;DHT22;13692;47.480;19.216;2022-11-13T14:09:23;12.30;99.90
25877;DHT22;13692;47.480;19.216;2022-11-13T14:14:47;12.30;99.90
25877;DHT22;13692;47.480;19.216;2022-11-13T14:17:22;12.30;99.90
25877;DHT22;13692;47.480;19.216;2022-11-13T14:19:51;12.20;99.90
25877;DHT22;13692;47.480;19.216;2022-11-13T14:22:20;12.20;99.90
25877;DHT22;13692;47.480;19.216;2022-11-13T14:24:56;12.20;99.90
25877;DHT22;13692;47.480;19.216;2022-11-13T14:27:25;12.10;99.90
25877;DHT22;13692;47.480;19.216;2022-11-13T14:29:55;12.10;99.90
25877;DHT22;13692;47.480;19.216;2022-11-13T14:32:29;12.10;99.90
25877;DHT22;13692;47.480;19.216;2022-11-13T14:35:00;12.00;99.90
25877;DHT22;13692;47.480;19.216;2022-11-13T14:37:35;12.00;99.90
25877;DHT22;13692;47.480;19.216;2022-11-13T14:40:27;11.90;99.90
25877;DHT22;13692;47.480;19.216;2022-11-13T14:43:01;11.80;99.90
25877;DHT22;13692;47.480;19.216;2022-11-13T14:45:30;11.70;99.90
25877;DHT22;13692;47.480;19.216;2022-11-13T14:51:34;11.50;99.90
25877;DHT22;13692;47.480;19.216;2022-11-13T14:53:41;11.40;99.90
25877;DHT22;13692;47.480;19.216;2022-11-13T14:56:10;11.30;99.90
25877;DHT22;13692;47.480;19.216;2022-11-13T14:58:40;11.20;99.90
25877;DHT22;13692;47.480;19.216;2022-11-13T15:01:23;11.10;99.90
25877;DHT22;13692;47.480;19.216;2022-11-13T15:03:51;11.00;99.90
25877;DHT22;13692;47.480;19.216;2022-11-13T15:06:20;10.80;99.90
25877;DHT22;13692;47.480;19.216;2022-11-13T15:08:49;10.80;99.90
25877;DHT22;13692;47.480;19.216;2022-11-13T15:11:19;10.70;99.90
25877;DHT22;13692;47.480;19.216;2022-11-13T15:13:46;10.60;99.90
25877;DHT22;13692;47.480;19.216;2022-11-13T15:16:27;10.50;99.90
25877;DHT22;13692;47.480;19.216;2022-11-13T15:19:04;10.40;99.90
25877;DHT22;13692;47.480;19.216;2022-11-13T15:21:32;10.30;99.90
25877;DHT22;13692;47.480;19.216;2022-11-13T15:23:59;10.30;99.90
25877;DHT22;13692;47.480;19.216;2022-11-13T15:26:27;10.10;99.90
25877;DHT22;13692;47.480;19.216;2022-11-13T15:28:55;10.00;99.90
25877;DHT22;13692;47.480;19.216;2022-11-13T15:31:28;10.00;99.90
25877;DHT22;13692;47.480;19.216;2022-11-13T15:33:55;9.90;99.90
25877;DHT22;13692;47.480;19.216;2022-11-13T15:36:22;9.80;99.90
25877;DHT22;13692;47.480;19.216;2022-11-13T15:38:49;9.80;99.90
25877;DHT22;13692;47.480;19.216;2022-11-13T15:41:21;9.70;99.90
25877;DHT22;13692;47.480;19.216;2022-11-13T15:43:50;9.60;99.90
25877;DHT22;13692;47.480;19.216;2022-11-13T15:46:21;9.50;99.90
25877;DHT22;13692;47.480;19.216;2022-11-13T15:48:49;9.40;99.90
25877;DHT22;13692;47.480;19.216;2022-11-13T15:51:41;9.30;99.90
25877;DHT22;13692;47.480;19.216;2022-11-13T15:54:24;9.30;99.90
25877;DHT22;13692;47.480;19.216;2022-11-13T15:56:51;9.20;99.90
25877;DHT22;13692;47.480;19.216;2022-11-13T15:59:18;9.10;99.90
25877;DHT22;13692;47.480;19.216;2022-11-13T16:01:45;9.00;99.90
25877;DHT22;13692;47.480;19.216;2022-11-13T16:04:13;9.00;99.90
25877;DHT22;13692;47.480;19.216;2022-11-13T16:06:42;9.00;99.90
25877;DHT22;13692;47.480;19.216;2022-11-13T16:09:12;8.90;99.90
25877;DHT22;13692;47.480;19.216;2022-11-13T16:11:40;8.80;99.90
25877;DHT22;13692;47.480;19.216;2022-11-13T16:14:08;8.70;99.90
25877;DHT22;13692;47.480;19.216;2022-11-13T16:16:37;8.60;99.90
25877;DHT22;13692;47.480;19.216;2022-11-13T16:19:11;8.60;99.90
25877;DHT22;13692;47.480;19.216;2022-11-13T16:21:39;8.50;99.90
25877;DHT22;13692;47.480;19.216;2022-11-13T16:24:07;8.50;99.90
25877;DHT22;13692;47.480;19.216;2022-11-13T16:26:35;8.40;99.90
25877;DHT22;13692;47.480;19.216;2022-11-13T16:29:17;8.40;99.90
25877;DHT22;13692;47.480;19.216;2022-11-13T16:31:45;8.40;99.90
25877;DHT22;13692;47.480;19.216;2022-11-13T16:34:12;8.30;99.90
25877;DHT22;13692;47.480;19.216;2022-11-13T16:36:40;8.30;99.90
25877;DHT22;13692;47.480;19.216;2022-11-13T16:39:13;8.20;99.90
25877;DHT22;13692;47.480;19.216;2022-11-13T16:41:41;8.20;99.90
25877;DHT22;13692;47.480;19.216;2022-11-13T16:44:08;8.20;99.90
25877;DHT22;13692;47.480;19.216;2022-11-13T16:46:38;8.20;99.90
25877;DHT22;13692;47.480;19.216;2022-11-13T16:49:13;8.20;99.90
25877;DHT22;13692;47.480;19.216;2022-11-13T16:51:46;8.20;99.90
25877;DHT22;13692;47.480;19.216;2022-11-13T16:54:13;8.20;99.90
25877;DHT22;13692;47.480;19.216;2022-11-13T16:56:40;8.20;99.90
25877;DHT22;13692;47.480;19.216;2022-11-13T16:59:09;8.10;99.90
25877;DHT22;13692;47.480;19.216;2022-11-13T17:01:37;8.10;99.90
25877;DHT22;13692;47.480;19.216;2022-11-13T17:04:04;8.10;99.90
25877;DHT22;13692;47.480;19.216;2022-11-13T17:06:34;8.10;99.90
25877;DHT22;13692;47.480;19.216;2022-11-13T17:09:02;8.10;99.90
25877;DHT22;13692;47.480;19.216;2022-11-13T17:11:31;8.00;99.90
25877;DHT22;13692;47.480;19.216;2022-11-13T17:14:00;8.00;99.90
25877;DHT22;13692;47.480;19.216;2022-11-13T17:16:29;8.00;99.90